Time;durP1;ratioP1;P1;durP2;ratioP2;P2;SDS_P1;SDS_P2;PMS_P1;PMS_P2;Temp;Humidity;BMP_temperature;BMP_pressure;BME280_temperature;BME280_humidity;BME280_pressure;Samples;Min_cycle;Max_cycle;Signal;HPM_P1;HPM_P2
2022/08/07 00:02:26;;;;;;;19.00;15.00;;;;;;;;;;5072612;28;20226;-76
2022/08/07 00:05:29;;;;;;;17.00;15.00;;;;;;;;;;5094622;28;20203;-76
2022/08/07 00:08:35;;;;;;;16.07;14.37;;;;;;;;;;5083190;28;20188;-76
2022/08/07 00:11:39;;;;;;;18.63;16.73;;;;;;;;;;5096255;28;20225;-77
2022/08/07 00:14:43;;;;;;;18.73;15.57;;;;;;;;;;5083249;28;20181;-75
2022/08/07 00:17:48;;;;;;;19.27;15.30;;;;;;;;;;5082770;28;20670;-75
2022/08/07 00:21:00;;;;;;;17.27;15.47;;;;;;;;;;5095298;28;20692;-79
2022/08/07 00:24:04;;;;;;;15.10;13.50;;;;;;;;;;5095896;28;20179;-75
2022/08/07 00:27:08;;;;;;;21.47;13.90;;;;;;;;;;5094099;28;20675;-75
2022/08/07 00:30:12;;;;;;;16.67;14.13;;;;;;;;;;5082774;28;20189;-75
2022/08/07 00:33:16;;;;;;;15.77;14.03;;;;;;;;;;5074590;28;20672;-75
2022/08/07 00:36:20;;;;;;;17.80;13.60;;;;;;;;;;5051101;28;20187;-78
2022/08/07 00:39:25;;;;;;;17.67;13.43;;;;;;;;;;5052725;28;20535;-76
2022/08/07 00:42:31;;;;;;;16.60;13.30;;;;;;;;;;5050560;28;20235;-76
2022/08/07 00:45:35;;;;;;;14.07;12.30;;;;;;;;;;5062013;28;20651;-75
2022/08/07 00:48:39;;;;;;;13.30;11.90;;;;;;;;;;5062054;28;20190;-75
2022/08/07 00:51:43;;;;;;;14.73;13.10;;;;;;;;;;5062352;28;20222;-78
2022/08/07 00:54:48;;;;;;;14.10;12.60;;;;;;;;;;5049986;28;20562;-75
2022/08/07 00:57:52;;;;;;;14.33;11.90;;;;;;;;;;5039021;28;20210;-75
2022/08/07 01:00:57;;;;;;;14.00;10.83;;;;;;;;;;5062220;28;20226;-75
2022/08/07 01:04:05;;;;;;;13.03;11.40;;;;;;;;;;5091739;28;20222;-78
2022/08/07 01:07:09;;;;;;;11.23;9.40;;;;;;;;;;5093877;28;20189;-75
2022/08/07 01:10:14;;;;;;;11.37;9.90;;;;;;;;;;5093487;28;20183;-76
2022/08/07 01:13:19;;;;;;;10.60;9.50;;;;;;;;;;5094651;28;20178;-75
2022/08/07 01:16:23;;;;;;;10.33;9.33;;;;;;;;;;5093476;28;20179;-76
2022/08/07 01:19:29;;;;;;;11.33;9.83;;;;;;;;;;5093283;28;20174;-76
2022/08/07 01:22:35;;;;;;;9.87;8.87;;;;;;;;;;5081571;28;20222;-75
2022/08/07 01:25:40;;;;;;;11.93;9.10;;;;;;;;;;5093339;28;20179;-75
2022/08/07 01:28:47;;;;;;;11.57;10.37;;;;;;;;;;5093798;28;20187;-75
2022/08/07 01:31:54;;;;;;;9.63;8.70;;;;;;;;;;5081515;28;20219;-76
2022/08/07 01:34:59;;;;;;;9.70;8.63;;;;;;;;;;5081475;28;20503;-76
2022/08/07 01:38:03;;;;;;;11.67;9.53;;;;;;;;;;5069968;28;20199;-76
2022/08/07 01:41:08;;;;;;;8.87;8.07;;;;;;;;;;5081377;28;20207;-76
2022/08/07 01:44:14;;;;;;;9.37;8.53;;;;;;;;;;5081357;28;20543;-76
2022/08/07 01:47:19;;;;;;;10.50;9.37;;;;;;;;;;5093274;28;20179;-75
2022/08/07 01:50:26;;;;;;;10.20;8.33;;;;;;;;;;5092841;28;20186;-76
2022/08/07 01:53:33;;;;;;;10.70;9.60;;;;;;;;;;5092898;28;20617;-76
2022/08/07 01:56:51;;;;;;;10.20;9.10;;;;;;;;;;5080819;28;20554;-76
2022/08/07 02:00:11;;;;;;;9.70;8.70;;;;;;;;;;5093363;28;20179;-76
2022/08/07 02:03:22;;;;;;;10.90;9.80;;;;;;;;;;5082051;28;20546;-76
2022/08/07 02:06:31;;;;;;;11.70;10.37;;;;;;;;;;5081121;28;20179;-76
2022/08/07 02:09:40;;;;;;;11.63;10.07;;;;;;;;;;5081356;28;20186;-76
2022/08/07 02:12:46;;;;;;;12.67;10.57;;;;;;;;;;5092724;28;20171;-76
2022/08/07 02:16:00;;;;;;;11.70;10.43;;;;;;;;;;5092629;28;20178;-76
2022/08/07 02:19:07;;;;;;;11.47;10.27;;;;;;;;;;5092604;28;20553;-76
2022/08/07 02:22:13;;;;;;;11.00;9.93;;;;;;;;;;5096906;22;20232;-84
2022/08/07 02:25:18;;;;;;;11.03;9.80;;;;;;;;;;5030714;28;20203;-84
2022/08/07 02:28:35;;;;;;;11.93;10.73;;;;;;;;;;5042902;28;20177;-84
2022/08/07 02:31:42;;;;;;;10.70;9.47;;;;;;;;;;5031500;28;20223;-84
2022/08/07 02:34:48;;;;;;;12.00;10.67;;;;;;;;;;5020057;28;20196;-85
2022/08/07 02:37:55;;;;;;;12.47;10.80;;;;;;;;;;5020361;28;20183;-84
2022/08/07 02:41:02;;;;;;;10.70;9.60;;;;;;;;;;5042973;28;20191;-84
2022/08/07 02:44:09;;;;;;;12.47;10.10;;;;;;;;;;5031593;28;20543;-84
2022/08/07 02:47:14;;;;;;;9.83;8.40;;;;;;;;;;5021113;28;20189;-84
2022/08/07 02:50:19;;;;;;;10.73;9.57;;;;;;;;;;5031638;28;20180;-84
2022/08/07 02:53:30;;;;;;;10.00;8.63;;;;;;;;;;5030865;28;20216;-84
2022/08/07 02:56:37;;;;;;;10.20;9.10;;;;;;;;;;5019983;28;20176;-84
2022/08/07 02:59:49;;;;;;;11.60;8.67;;;;;;;;;;5031688;28;20185;-84
2022/08/07 03:02:53;;;;;;;8.03;7.30;;;;;;;;;;5031135;28;20220;-85
2022/08/07 03:05:59;;;;;;;9.17;8.27;;;;;;;;;;5057150;28;20204;-85
2022/08/07 03:09:06;;;;;;;8.70;7.87;;;;;;;;;;5051240;28;20183;-84
2022/08/07 03:12:11;;;;;;;8.73;7.93;;;;;;;;;;5051766;28;20223;-84
2022/08/07 03:15:16;;;;;;;8.17;7.47;;;;;;;;;;5051617;28;20180;-85
2022/08/07 03:18:21;;;;;;;8.13;7.27;;;;;;;;;;5042512;28;20191;-84
2022/08/07 03:21:27;;;;;;;7.27;6.57;;;;;;;;;;5043960;28;20175;-84
2022/08/07 03:24:33;;;;;;;10.17;7.57;;;;;;;;;;5054181;28;20546;-84
2022/08/07 03:27:41;;;;;;;8.50;7.70;;;;;;;;;;5043277;28;20200;-85
2022/08/07 03:31:17;;;;;;;7.77;6.83;;;;;;;;;;5078580;28;20204;-85
2022/08/07 03:34:17;;;;;;;7.50;6.70;;;;;;;;;;5055000;28;20204;-84
2022/08/07 03:37:24;;;;;;;7.37;6.57;;;;;;;;;;5065180;28;20194;-84
2022/08/07 03:40:29;;;;;;;8.00;6.80;;;;;;;;;;5054601;28;20503;-84
2022/08/07 03:43:37;;;;;;;7.90;7.10;;;;;;;;;;5066065;28;20219;-84
2022/08/07 03:46:41;;;;;;;9.37;6.50;;;;;;;;;;5077551;28;20639;-85
2022/08/07 03:49:46;;;;;;;6.27;5.67;;;;;;;;;;5053265;28;20179;-84
2022/08/07 03:52:52;;;;;;;6.43;5.80;;;;;;;;;;5053139;28;20681;-83
2022/08/07 03:55:59;;;;;;;5.93;5.33;;;;;;;;;;5052969;28;20657;-84
2022/08/07 03:59:05;;;;;;;6.57;5.13;;;;;;;;;;5053518;28;20183;-84
2022/08/07 04:02:09;;;;;;;6.30;5.70;;;;;;;;;;5052607;28;20558;-84
2022/08/07 04:05:13;;;;;;;5.93;5.33;;;;;;;;;;5052994;28;20183;-84
2022/08/07 04:08:19;;;;;;;6.00;4.47;;;;;;;;;;5052998;28;20184;-84
2022/08/07 04:11:25;;;;;;;4.57;4.17;;;;;;;;;;5052843;28;20195;-84
2022/08/07 04:14:31;;;;;;;4.53;4.13;;;;;;;;;;5052784;28;20199;-85
2022/08/07 04:17:35;;;;;;;6.03;4.00;;;;;;;;;;5052607;28;20179;-84
2022/08/07 04:20:40;;;;;;;4.47;4.07;;;;;;;;;;5075817;28;20179;-84
2022/08/07 04:23:45;;;;;;;4.80;4.00;;;;;;;;;;5075522;28;20215;-83
2022/08/07 04:26:50;;;;;;;6.23;5.03;;;;;;;;;;5052785;28;20176;-83
2022/08/07 04:29:54;;;;;;;4.57;4.17;;;;;;;;;;5064397;28;20179;-83
2022/08/07 04:32:59;;;;;;;5.27;4.37;;;;;;;;;;5063783;28;20215;-83
2022/08/07 04:36:10;;;;;;;7.77;4.93;;;;;;;;;;5075746;28;20180;-83
2022/08/07 04:39:15;;;;;;;4.60;4.20;;;;;;;;;;5052438;28;20175;-84
2022/08/07 04:42:19;;;;;;;4.40;3.50;;;;;;;;;;5052646;28;20555;-84
2022/08/07 04:45:33;;;;;;;6.70;4.30;;;;;;;;;;5063601;28;20187;-84
2022/08/07 04:48:53;;;;;;;4.37;3.97;;;;;;;;;;5052257;28;20203;-84
2022/08/07 04:52:17;;;;;;;3.93;3.63;;;;;;;;;;5051954;28;20216;-85
2022/08/07 04:55:29;;;;;;;4.10;3.77;;;;;;;;;;5063835;28;20175;-83
2022/08/07 04:58:58;;;;;;;4.43;3.83;;;;;;;;;;5063938;28;20519;-84
2022/08/07 05:02:10;;;;;;;4.40;3.40;;;;;;;;;;5052275;28;20210;-83
2022/08/07 05:05:30;;;;;;;6.97;3.87;;;;;;;;;;5052476;28;20215;-83
2022/08/07 05:08:42;;;;;;;4.23;3.40;;;;;;;;;;5020978;28;20180;-85
2022/08/07 05:11:50;;;;;;;4.80;3.57;;;;;;;;;;5044026;28;20223;-83
2022/08/07 05:15:14;;;;;;;3.10;2.83;;;;;;;;;;5032146;28;20173;-83
2022/08/07 05:18:26;;;;;;;4.10;3.00;;;;;;;;;;5042844;28;20176;-83
2022/08/07 05:21:31;;;;;;;5.70;2.80;;;;;;;;;;5042503;28;20196;-83
2022/08/07 05:24:38;;;;;;;3.60;2.43;;;;;;;;;;5031733;28;20208;-83
2022/08/07 05:27:45;;;;;;;2.90;2.50;;;;;;;;;;5031660;28;20184;-83
2022/08/07 05:30:51;;;;;;;7.07;2.53;;;;;;;;;;5043548;28;20184;-83
2022/08/07 05:33:56;;;;;;;2.23;2.03;;;;;;;;;;5031669;28;20176;-83
2022/08/07 05:37:02;;;;;;;2.90;1.83;;;;;;;;;;5031774;28;20513;-84
2022/08/07 05:40:15;;;;;;;1.73;1.63;;;;;;;;;;5020828;28;20192;-83
2022/08/07 05:43:20;;;;;;;2.57;1.90;;;;;;;;;;5042798;28;20698;-83
2022/08/07 05:46:25;;;;;;;1.70;1.60;;;;;;;;;;5031651;28;20179;-83
2022/08/07 05:49:30;;;;;;;2.70;1.87;;;;;;;;;;5020858;28;20180;-82
2022/08/07 05:52:34;;;;;;;2.07;1.53;;;;;;;;;;5031140;28;20224;-83
2022/08/07 05:55:42;;;;;;;2.90;1.60;;;;;;;;;;5031293;28;20172;-83
2022/08/07 05:58:47;;;;;;;3.77;1.80;;;;;;;;;;5031340;28;20552;-82
2022/08/07 06:01:53;;;;;;;3.93;1.90;;;;;;;;;;5031487;28;20211;-84
2022/08/07 06:05:06;;;;;;;1.93;1.50;;;;;;;;;;5020432;28;20682;-83
2022/08/07 06:08:10;;;;;;;2.90;1.57;;;;;;;;;;5031511;28;20184;-84
2022/08/07 06:11:16;;;;;;;2.37;1.60;;;;;;;;;;5032931;28;20176;-84
2022/08/07 06:14:20;;;;;;;3.33;1.60;;;;;;;;;;5020672;28;20176;-85
2022/08/07 06:17:27;;;;;;;3.27;1.30;;;;;;;;;;5021711;28;20200;-83
2022/08/07 06:20:34;;;;;;;2.90;1.60;;;;;;;;;;5030428;28;20192;-83
2022/08/07 06:23:39;;;;;;;4.00;1.47;;;;;;;;;;5019097;28;20223;-83
2022/08/07 06:26:44;;;;;;;2.30;1.63;;;;;;;;;;5030309;28;20195;-83
2022/08/07 06:29:49;;;;;;;4.03;1.20;;;;;;;;;;5030773;28;20658;-83
2022/08/07 06:32:53;;;;;;;2.20;1.20;;;;;;;;;;5046939;28;20686;-83
2022/08/07 06:35:57;;;;;;;1.67;1.30;;;;;;;;;;5030415;28;20200;-83
2022/08/07 06:39:02;;;;;;;1.53;1.20;;;;;;;;;;5019706;28;20180;-83
2022/08/07 06:42:12;;;;;;;1.50;1.23;;;;;;;;;;5042373;28;20212;-82
2022/08/07 06:45:42;;;;;;;1.50;1.17;;;;;;;;;;5035436;28;20238;-83
2022/08/07 06:48:47;;;;;;;2.33;1.63;;;;;;;;;;5041165;28;20544;-82
2022/08/07 06:51:58;;;;;;;3.77;1.80;;;;;;;;;;5040744;28;20571;-83
2022/08/07 06:55:08;;;;;;;1.50;1.40;;;;;;;;;;5033507;28;20184;-83
2022/08/07 06:58:13;;;;;;;1.90;1.37;;;;;;;;;;5042797;28;20188;-84
2022/08/07 07:01:27;;;;;;;1.73;1.20;;;;;;;;;;5055705;28;20192;-83
2022/08/07 07:04:32;;;;;;;6.47;1.40;;;;;;;;;;5045174;28;20195;-84
2022/08/07 07:07:36;;;;;;;4.20;1.50;;;;;;;;;;5054366;28;20183;-83
2022/08/07 07:10:40;;;;;;;3.00;1.50;;;;;;;;;;5035750;28;20183;-84
2022/08/07 07:13:50;;;;;;;2.10;1.30;;;;;;;;;;5035593;28;20195;-83
2022/08/07 07:16:59;;;;;;;5.50;1.53;;;;;;;;;;5055405;28;20188;-83
2022/08/07 07:20:11;;;;;;;2.10;1.40;;;;;;;;;;5040890;28;20547;-83
2022/08/07 07:23:16;;;;;;;2.90;1.50;;;;;;;;;;5053109;28;20211;-83
2022/08/07 07:26:21;;;;;;;3.30;1.57;;;;;;;;;;5065223;28;20171;-82
2022/08/07 07:29:31;;;;;;;2.80;1.43;;;;;;;;;;5065446;28;20183;-83
2022/08/07 07:32:39;;;;;;;2.83;1.50;;;;;;;;;;5053610;28;20215;-84
2022/08/07 07:35:47;;;;;;;2.27;1.60;;;;;;;;;;5061890;28;20179;-83
2022/08/07 07:38:52;;;;;;;4.57;1.57;;;;;;;;;;5043108;28;20188;-82
2022/08/07 07:41:56;;;;;;;2.27;1.70;;;;;;;;;;5035906;28;20211;-82
2022/08/07 07:45:04;;;;;;;4.93;1.83;;;;;;;;;;5044587;28;20563;-84
2022/08/07 07:48:11;;;;;;;1.87;1.70;;;;;;;;;;5057979;28;20554;-81
2022/08/07 07:51:17;;;;;;;2.73;1.40;;;;;;;;;;5042876;28;20199;-81
2022/08/07 07:54:23;;;;;;;1.97;1.77;;;;;;;;;;5055560;28;20176;-82
2022/08/07 07:57:28;;;;;;;2.63;1.67;;;;;;;;;;5044129;28;20198;-81
2022/08/07 08:00:33;;;;;;;2.20;1.40;;;;;;;;;;5034179;28;20544;-81
2022/08/07 08:03:39;;;;;;;1.50;1.40;;;;;;;;;;5053688;28;20223;-83
2022/08/07 08:06:46;;;;;;;4.60;1.50;;;;;;;;;;5040420;28;20167;-81
2022/08/07 08:09:52;;;;;;;1.40;1.30;;;;;;;;;;5055788;28;20207;-84
2022/08/07 08:12:58;;;;;;;1.97;1.30;;;;;;;;;;5053407;28;20682;-84
2022/08/07 08:16:03;;;;;;;1.77;1.23;;;;;;;;;;5031849;28;20191;-83
2022/08/07 08:19:12;;;;;;;1.50;1.40;;;;;;;;;;5043309;28;20199;-83
2022/08/07 08:29:03;;;;;;;2.13;1.40;;;;;;;;;;5062580;28;20183;-88
2022/08/07 08:32:14;;;;;;;1.63;1.30;;;;;;;;;;5051161;28;20190;-88
2022/08/07 08:35:24;;;;;;;2.17;1.30;;;;;;;;;;5031694;28;20216;-87
2022/08/07 08:38:36;;;;;;;3.10;1.20;;;;;;;;;;5032229;28;20535;-90
2022/08/07 08:41:47;;;;;;;3.23;1.20;;;;;;;;;;5046018;28;20650;-86
2022/08/07 08:44:59;;;;;;;3.77;1.10;;;;;;;;;;5067056;28;20223;-87
2022/08/07 08:48:18;;;;;;;1.83;1.03;;;;;;;;;;5070362;28;20202;-85
2022/08/07 08:51:38;;;;;;;2.03;1.00;;;;;;;;;;5051397;28;20192;-84
2022/08/07 08:54:46;;;;;;;3.03;1.10;;;;;;;;;;5061837;28;20214;-86
2022/08/07 08:58:09;;;;;;;1.20;1.03;;;;;;;;;;5049476;28;20190;-86
2022/08/07 09:01:20;;;;;;;0.97;0.90;;;;;;;;;;5056708;28;20196;-84
2022/08/07 09:04:43;;;;;;;4.97;0.97;;;;;;;;;;5048835;28;20220;-86
2022/08/07 09:07:57;;;;;;;1.63;1.20;;;;;;;;;;5049083;28;20198;-85
2022/08/07 09:11:12;;;;;;;4.27;0.80;;;;;;;;;;5056449;28;20196;-86
2022/08/07 09:14:43;;;;;;;2.67;1.00;;;;;;;;;;5047886;28;20230;-86
2022/08/07 09:18:24;;;;;;;1.97;0.90;;;;;;;;;;5054738;28;20676;-85
2022/08/07 09:21:35;;;;;;;4.67;0.97;;;;;;;;;;5031251;28;20555;-85
2022/08/07 09:24:57;;;;;;;3.20;1.00;;;;;;;;;;5030842;28;20565;-85
2022/08/07 09:28:08;;;;;;;2.47;1.23;;;;;;;;;;5042735;28;20182;-85
2022/08/07 09:31:35;;;;;;;1.10;0.90;;;;;;;;;;5042608;28;20618;-85
2022/08/07 09:35:20;;;;;;;1.20;1.00;;;;;;;;;;5030958;28;20227;-86
2022/08/07 09:38:48;;;;;;;4.47;1.20;;;;;;;;;;5030846;28;20193;-84
2022/08/07 09:42:08;;;;;;;1.70;0.87;;;;;;;;;;5030690;28;20187;-85
2022/08/07 09:45:50;;;;;;;1.30;0.90;;;;;;;;;;5032260;28;20229;-84
2022/08/07 09:49:14;;;;;;;1.33;1.00;;;;;;;;;;5036052;28;20514;-85
2022/08/07 09:52:36;;;;;;;1.42;0.95;;;;;;;;;;5034454;28;20194;-85
2022/08/07 09:56:12;;;;;;;2.08;0.65;;;;;;;;;;5041332;28;20213;-85
2022/08/07 09:59:45;;;;;;;2.45;1.08;;;;;;;;;;5029679;28;20717;-85
2022/08/07 10:03:27;;;;;;;5.05;1.05;;;;;;;;;;5023383;28;20207;-85
2022/08/07 10:06:45;;;;;;;8.10;4.38;;;;;;;;;;5029943;28;20205;-85
2022/08/07 10:09:59;;;;;;;2.10;1.10;;;;;;;;;;5029852;28;20202;-86
2022/08/07 10:13:34;;;;;;;1.35;1.10;;;;;;;;;;5040470;28;20720;-85
2022/08/07 10:16:44;;;;;;;1.50;1.00;;;;;;;;;;5039866;28;20677;-85
2022/08/07 10:20:08;;;;;;;1.60;1.00;;;;;;;;;;5029575;28;20180;-86
2022/08/07 10:23:39;;;;;;;1.48;0.80;;;;;;;;;;5042255;28;20178;-85
2022/08/07 10:27:01;;;;;;;1.30;0.90;;;;;;;;;;5043220;28;20202;-85
2022/08/07 10:30:08;;;;;;;2.25;1.08;;;;;;;;;;5056155;28;20608;-85
2022/08/07 10:33:44;;;;;;;3.50;0.90;;;;;;;;;;5033793;28;20179;-85
2022/08/07 10:37:07;;;;;;;1.83;0.90;;;;;;;;;;5045140;28;20181;-86
2022/08/07 10:40:18;;;;;;;2.03;1.10;;;;;;;;;;5044979;28;20178;-85
2022/08/07 10:43:42;;;;;;;2.58;1.13;;;;;;;;;;5044391;28;20194;-86
2022/08/07 10:46:54;;;;;;;19.52;7.13;;;;;;;;;;5033525;28;20323;-85
2022/08/07 10:50:12;;;;;;;2.25;0.90;;;;;;;;;;5044567;28;20190;-86
2022/08/07 10:53:23;;;;;;;2.33;0.93;;;;;;;;;;5033265;28;20185;-87
2022/08/07 10:56:47;;;;;;;1.38;1.00;;;;;;;;;;5044690;28;20179;-86
2022/08/07 11:00:04;;;;;;;3.53;0.70;;;;;;;;;;5018828;28;20208;-87
2022/08/07 11:03:15;;;;;;;2.15;0.90;;;;;;;;;;5022046;28;20181;-86
2022/08/07 11:06:27;;;;;;;6.57;1.70;;;;;;;;;;5044611;28;20212;-86
2022/08/07 11:09:41;;;;;;;1.13;1.00;;;;;;;;;;5044362;28;20221;-86
2022/08/07 11:13:01;;;;;;;0.98;0.88;;;;;;;;;;5033138;28;20188;-86
2022/08/07 11:16:13;;;;;;;5.85;1.85;;;;;;;;;;5044400;28;20214;-86
2022/08/07 11:19:24;;;;;;;1.85;0.98;;;;;;;;;;5021945;28;20180;-86
2022/08/07 11:22:53;;;;;;;3.30;1.75;;;;;;;;;;5033083;28;20181;-87
2022/08/07 11:26:09;;;;;;;2.58;0.77;;;;;;;;;;5032931;28;20230;-86
2022/08/07 11:29:20;;;;;;;3.53;0.80;;;;;;;;;;5043902;28;20204;-86
2022/08/07 11:32:50;;;;;;;2.55;1.10;;;;;;;;;;5032685;28;20184;-86
2022/08/07 11:36:03;;;;;;;1.67;0.80;;;;;;;;;;5055116;28;20557;-86
2022/08/07 11:39:30;;;;;;;1.95;0.50;;;;;;;;;;5032410;28;20180;-86
2022/08/07 11:43:21;;;;;;;1.27;0.73;;;;;;;;;;5032691;28;20189;-86
2022/08/07 11:46:59;;;;;;;2.60;1.00;;;;;;;;;;5032507;28;20201;-86
2022/08/07 11:50:22;;;;;;;1.10;0.60;;;;;;;;;;5043673;28;20185;-87
2022/08/07 11:53:45;;;;;;;2.03;0.98;;;;;;;;;;5043658;28;20181;-87
2022/08/07 11:57:14;;;;;;;3.28;0.80;;;;;;;;;;5056151;28;20173;-87
2022/08/07 12:00:27;;;;;;;26.10;2.15;;;;;;;;;;5032611;28;20176;-87
2022/08/07 12:04:09;;;;;;;1.15;0.60;;;;;;;;;;5055009;28;20526;-86
2022/08/07 12:07:23;;;;;;;2.72;0.70;;;;;;;;;;5043353;28;20556;-87
2022/08/07 12:10:38;;;;;;;1.17;0.80;;;;;;;;;;5033205;28;20185;-86
2022/08/07 12:13:47;;;;;;;1.60;0.90;;;;;;;;;;5044711;28;20642;-86
2022/08/07 12:16:56;;;;;;;1.23;0.70;;;;;;;;;;5044405;28;20185;-86
2022/08/07 12:20:30;;;;;;;0.73;0.60;;;;;;;;;;5044309;28;20626;-85
2022/08/07 12:23:43;;;;;;;2.17;0.60;;;;;;;;;;5006464;28;20204;-85
2022/08/07 12:27:00;;;;;;;5.80;1.13;;;;;;;;;;5032861;28;20651;-85
2022/08/07 12:30:06;;;;;;;1.58;0.90;;;;;;;;;;5032670;28;20537;-86
2022/08/07 12:33:17;;;;;;;1.98;0.60;;;;;;;;;;5021224;28;20181;-88
2022/08/07 12:36:23;;;;;;;9.63;1.50;;;;;;;;;;5031955;28;20172;-85
2022/08/07 12:39:31;;;;;;;1.25;0.73;;;;;;;;;;5032258;28;20173;-86
2022/08/07 12:42:37;;;;;;;2.08;0.70;;;;;;;;;;5043130;28;20172;-88
2022/08/07 12:45:51;;;;;;;2.53;0.77;;;;;;;;;;5046009;28;20559;-86
2022/08/07 12:49:14;;;;;;;1.02;0.80;;;;;;;;;;5043805;28;20205;-85
2022/08/07 12:52:30;;;;;;;1.60;0.80;;;;;;;;;;5055107;28;20184;-86
2022/08/07 12:55:39;;;;;;;2.35;0.90;;;;;;;;;;5033600;28;20212;-86
2022/08/07 12:58:46;;;;;;;2.45;0.88;;;;;;;;;;5043888;28;20180;-86
2022/08/07 13:02:07;;;;;;;0.60;0.60;;;;;;;;;;5044506;28;20200;-86
2022/08/07 13:05:17;;;;;;;1.23;0.55;;;;;;;;;;5032901;28;20216;-86
2022/08/07 13:08:30;;;;;;;1.67;0.73;;;;;;;;;;5044299;28;20173;-86
2022/08/07 13:12:00;;;;;;;1.40;0.77;;;;;;;;;;5031730;28;20192;-88
2022/08/07 13:15:33;;;;;;;1.30;0.73;;;;;;;;;;5030770;28;20216;-88
2022/08/07 13:19:00;;;;;;;1.10;0.80;;;;;;;;;;5030902;28;20185;-87
2022/08/07 13:22:20;;;;;;;2.05;0.85;;;;;;;;;;5031162;28;20177;-86
2022/08/07 13:25:41;;;;;;;3.17;0.95;;;;;;;;;;5031738;28;20572;-87
2022/08/07 13:28:52;;;;;;;2.85;0.70;;;;;;;;;;5033021;28;20185;-86
2022/08/07 13:32:00;;;;;;;5.60;0.73;;;;;;;;;;5054158;28;20193;-86
2022/08/07 13:35:11;;;;;;;2.55;0.60;;;;;;;;;;5041816;28;20220;-86
2022/08/07 13:38:22;;;;;;;2.25;0.90;;;;;;;;;;5041692;28;20177;-87
2022/08/07 13:41:34;;;;;;;2.47;0.77;;;;;;;;;;5029951;28;20196;-87
2022/08/07 13:44:40;;;;;;;0.60;0.60;;;;;;;;;;5041941;28;20315;-88
2022/08/07 13:47:49;;;;;;;4.88;0.73;;;;;;;;;;5043645;28;20200;-87
2022/08/07 13:50:54;;;;;;;2.00;0.70;;;;;;;;;;5032595;28;20176;-86
2022/08/07 13:54:08;;;;;;;1.20;0.70;;;;;;;;;;5043790;28;20180;-86
2022/08/07 13:57:13;;;;;;;2.85;0.70;;;;;;;;;;5043332;28;20671;-87
2022/08/07 14:00:18;;;;;;;1.23;0.80;;;;;;;;;;5041965;28;20635;-90
2022/08/07 14:03:26;;;;;;;2.08;0.80;;;;;;;;;;5030831;28;20176;-87
2022/08/07 14:06:33;;;;;;;1.85;0.70;;;;;;;;;;5030677;28;20216;-86
2022/08/07 14:09:39;;;;;;;1.13;0.80;;;;;;;;;;5019474;28;20196;-86
2022/08/07 14:12:50;;;;;;;1.38;0.63;;;;;;;;;;5042068;28;20295;-86
2022/08/07 14:15:59;;;;;;;2.17;0.70;;;;;;;;;;5030182;28;20208;-86
2022/08/07 14:19:05;;;;;;;3.65;0.57;;;;;;;;;;5042110;28;20180;-86
2022/08/07 14:22:14;;;;;;;1.35;0.70;;;;;;;;;;5053213;28;20177;-87
2022/08/07 14:25:24;;;;;;;2.55;0.98;;;;;;;;;;5058569;22;20230;-85
2022/08/07 14:28:29;;;;;;;1.25;0.88;;;;;;;;;;5051366;28;20208;-83
2022/08/07 14:31:33;;;;;;;1.17;0.90;;;;;;;;;;5040148;28;20183;-83
2022/08/07 14:34:41;;;;;;;0.80;0.70;;;;;;;;;;5039791;28;20622;-84
2022/08/07 14:37:48;;;;;;;4.03;0.70;;;;;;;;;;5019654;28;20179;-84
2022/08/07 14:40:55;;;;;;;1.27;0.70;;;;;;;;;;5042678;28;20180;-85
2022/08/07 14:44:08;;;;;;;1.38;0.50;;;;;;;;;;5019949;28;20188;-85
2022/08/07 14:47:15;;;;;;;2.90;0.68;;;;;;;;;;5030744;28;20219;-86
2022/08/07 14:50:22;;;;;;;4.95;0.85;;;;;;;;;;5023940;28;20187;-86
2022/08/07 14:53:30;;;;;;;3.10;0.80;;;;;;;;;;5044446;28;20173;-86
2022/08/07 14:56:39;;;;;;;1.50;0.75;;;;;;;;;;5031675;28;20215;-86
2022/08/07 14:59:45;;;;;;;0.60;0.60;;;;;;;;;;5030861;28;20187;-84
2022/08/07 15:02:49;;;;;;;0.70;0.70;;;;;;;;;;5020159;28;20183;-84
2022/08/07 15:05:56;;;;;;;1.65;0.80;;;;;;;;;;5030887;28;20679;-85
2022/08/07 15:09:09;;;;;;;4.03;0.70;;;;;;;;;;5031578;28;20187;-84
2022/08/07 15:12:20;;;;;;;3.78;0.77;;;;;;;;;;5018746;28;20176;-86
2022/08/07 15:15:34;;;;;;;1.45;0.70;;;;;;;;;;5033133;28;20221;-86
2022/08/07 15:18:50;;;;;;;2.47;0.70;;;;;;;;;;5046563;28;20184;-88
2022/08/07 15:21:59;;;;;;;2.20;0.70;;;;;;;;;;5045455;28;20182;-86
2022/08/07 15:25:10;;;;;;;3.55;0.75;;;;;;;;;;5022271;28;20520;-85
2022/08/07 15:28:19;;;;;;;2.10;0.75;;;;;;;;;;5037100;28;20210;-86
2022/08/07 15:31:24;;;;;;;2.05;0.80;;;;;;;;;;5033240;28;20174;-86
2022/08/07 15:34:39;;;;;;;2.58;0.85;;;;;;;;;;5024708;28;20186;-84
2022/08/07 15:37:49;;;;;;;2.15;0.75;;;;;;;;;;5036758;28;20186;-84
2022/08/07 15:40:55;;;;;;;1.02;0.90;;;;;;;;;;5025390;28;20181;-85
2022/08/07 15:44:03;;;;;;;2.40;0.90;;;;;;;;;;5037156;28;20185;-83
2022/08/07 15:47:08;;;;;;;1.00;0.85;;;;;;;;;;5046999;28;20227;-84
2022/08/07 15:50:17;;;;;;;1.13;0.73;;;;;;;;;;5047926;28;20524;-84
2022/08/07 15:53:33;;;;;;;1.77;0.70;;;;;;;;;;5023221;28;20182;-85
2022/08/07 15:56:40;;;;;;;1.98;1.23;;;;;;;;;;5033223;28;20216;-86
2022/08/07 15:59:45;;;;;;;1.60;0.82;;;;;;;;;;5032764;28;20176;-86
2022/08/07 16:02:55;;;;;;;1.10;0.88;;;;;;;;;;5015289;28;20554;-86
2022/08/07 16:06:00;;;;;;;1.33;0.95;;;;;;;;;;5032722;28;20700;-85
2022/08/07 16:09:17;;;;;;;1.75;0.90;;;;;;;;;;5036613;28;20691;-86
2022/08/07 16:12:30;;;;;;;1.42;0.90;;;;;;;;;;5024413;28;20529;-86
2022/08/07 16:15:48;;;;;;;2.55;0.80;;;;;;;;;;5013134;28;20559;-86
2022/08/07 16:19:29;;;;;;;1.30;0.90;;;;;;;;;;5013847;28;20195;-86
2022/08/07 16:23:17;;;;;;;5.83;1.00;;;;;;;;;;5021652;28;20521;-85
2022/08/07 16:26:24;;;;;;;1.93;0.83;;;;;;;;;;5012552;28;20231;-85
2022/08/07 16:29:48;;;;;;;1.10;0.80;;;;;;;;;;5033742;28;20205;-85
2022/08/07 16:33:11;;;;;;;1.13;0.70;;;;;;;;;;5033860;28;20178;-86
2022/08/07 16:36:37;;;;;;;4.47;0.90;;;;;;;;;;5036399;28;20560;-85
2022/08/07 16:40:13;;;;;;;1.60;0.90;;;;;;;;;;5012692;28;20185;-86
2022/08/07 16:43:45;;;;;;;3.57;1.00;;;;;;;;;;5024078;28;20198;-86
2022/08/07 16:47:14;;;;;;;3.23;1.40;;;;;;;;;;5013773;28;20226;-84
2022/08/07 16:51:04;;;;;;;2.63;2.40;;;;;;;;;;5013767;28;20190;-84
2022/08/07 16:54:29;;;;;;;2.27;2.00;;;;;;;;;;5019781;28;20183;-84
2022/08/07 16:57:58;;;;;;;1.70;1.60;;;;;;;;;;5014641;28;20623;-84
2022/08/07 17:01:17;;;;;;;2.33;1.43;;;;;;;;;;5012334;28;20188;-87
2022/08/07 17:04:35;;;;;;;3.93;1.60;;;;;;;;;;5023094;28;20193;-87
2022/08/07 17:07:49;;;;;;;2.17;1.30;;;;;;;;;;5012907;28;20218;-86
2022/08/07 17:10:56;;;;;;;2.47;1.20;;;;;;;;;;5011927;28;20185;-87
2022/08/07 17:14:09;;;;;;;3.77;1.73;;;;;;;;;;5023599;28;20184;-87
2022/08/07 17:17:28;;;;;;;1.40;1.20;;;;;;;;;;5031099;28;20187;-91
2022/08/07 17:20:36;;;;;;;2.60;1.70;;;;;;;;;;5019445;28;20560;-87
2022/08/07 17:23:59;;;;;;;39.73;13.17;;;;;;;;;;5026891;28;20198;-87
2022/08/07 17:27:27;;;;;;;3.10;1.80;;;;;;;;;;5012961;28;20248;-86
2022/08/07 17:30:44;;;;;;;1.93;1.57;;;;;;;;;;5025134;28;20203;-86
2022/08/07 17:33:53;;;;;;;3.47;1.77;;;;;;;;;;5025030;28;20195;-86
2022/08/07 17:37:08;;;;;;;1.77;1.43;;;;;;;;;;5015521;28;20221;-86
2022/08/07 17:40:37;;;;;;;2.47;1.53;;;;;;;;;;5032465;28;20196;-86
2022/08/07 17:43:51;;;;;;;3.57;1.60;;;;;;;;;;5024998;28;20538;-86
2022/08/07 17:47:01;;;;;;;4.47;1.70;;;;;;;;;;5021121;28;20214;-86
2022/08/07 17:50:20;;;;;;;2.00;1.70;;;;;;;;;;5024946;28;20186;-90
2022/08/07 17:53:55;;;;;;;2.17;1.70;;;;;;;;;;5042347;28;20190;-86
2022/08/07 17:57:14;;;;;;;3.40;1.50;;;;;;;;;;5010425;28;20221;-86
2022/08/07 18:00:22;;;;;;;2.67;1.83;;;;;;;;;;5025623;28;20181;-86
2022/08/07 18:03:34;;;;;;;1.97;1.77;;;;;;;;;;5008996;28;20184;-85
2022/08/07 18:06:46;;;;;;;2.33;1.70;;;;;;;;;;5032579;28;20568;-87
2022/08/07 18:09:58;;;;;;;13.93;2.43;;;;;;;;;;5019082;28;20195;-86
2022/08/07 18:13:07;;;;;;;2.73;1.50;;;;;;;;;;5020398;28;20543;-86
2022/08/07 18:16:19;;;;;;;3.30;1.73;;;;;;;;;;5010634;28;20213;-86
2022/08/07 18:19:44;;;;;;;5.40;1.70;;;;;;;;;;5017944;28;20182;-86
2022/08/07 18:22:56;;;;;;;2.13;1.77;;;;;;;;;;5002088;28;20186;-85
2022/08/07 18:26:05;;;;;;;1.90;1.60;;;;;;;;;;5020918;28;20231;-87
2022/08/07 18:29:12;;;;;;;9.87;1.90;;;;;;;;;;5038914;28;20208;-86
2022/08/07 18:32:49;;;;;;;3.13;1.73;;;;;;;;;;5018586;28;20180;-86
2022/08/07 18:36:15;;;;;;;2.00;1.80;;;;;;;;;;5029453;28;20223;-86
2022/08/07 18:39:41;;;;;;;2.10;1.70;;;;;;;;;;5022854;28;20181;-86
2022/08/07 18:43:09;;;;;;;1.63;1.50;;;;;;;;;;5030234;28;20644;-86
2022/08/07 18:46:27;;;;;;;4.50;2.20;;;;;;;;;;5025496;28;20216;-87
2022/08/07 18:50:12;;;;;;;7.10;1.80;;;;;;;;;;5028818;28;20200;-87
2022/08/07 18:53:35;;;;;;;3.83;1.80;;;;;;;;;;5043992;28;20192;-86
2022/08/07 18:56:56;;;;;;;3.37;1.90;;;;;;;;;;5056270;28;20220;-87
2022/08/07 19:00:09;;;;;;;2.17;1.60;;;;;;;;;;5033744;28;20172;-87
2022/08/07 19:03:19;;;;;;;3.70;1.90;;;;;;;;;;5044482;28;20181;-87
2022/08/07 19:06:48;;;;;;;4.10;1.90;;;;;;;;;;5044649;28;20555;-87
2022/08/07 19:10:03;;;;;;;2.27;1.80;;;;;;;;;;5021957;28;20172;-87
2022/08/07 19:13:18;;;;;;;1.97;1.70;;;;;;;;;;5021936;28;20184;-87
2022/08/07 19:16:49;;;;;;;2.43;1.53;;;;;;;;;;5023236;28;20239;-86
2022/08/07 19:20:05;;;;;;;3.57;2.17;;;;;;;;;;5022485;28;20512;-86